Monday, December 22, 2014
09:11 UTC
  |  Log In   |  Register Free
Airport Search:

Northeast Philadelphia Airport
(KPNE)

FAA data valid effective November 13, 2014 - January 08, 2015 (unless otherwise noted).

 
 
 
 
 
 
 
 
 
 
 
 
 
 

Current Aviation Weather for Northeast Philadelphia Airport (KPNE)

The most recent METAR observation for KPNE was updated at: 2118
METAR Summary (Translated METAR)
KPNE
182054Z AUTO 29014G18KT 10SM FEW040 04/M06 A3003 RMK AO2 SLP168 T00441056 55003 TSNO $
KVAY
182054Z AUTO 28011G18KT 10SM CLR 03/M04 A3001 RMK AO2 SLP164 T00331044 55003
(11.3 nm SE from KPNE)
KLOM
182055Z AUTO 30007G15KT 10SM BKN037 03/M03 A3001 RMK AO1
(12.2 nm NW from KPNE)
TAF Summary (Translated TAF)
KPNE
220532Z 2206/2306 VRB03KT P6SM OVC025 FM221600 08005KT P6SM SCT025 OVC060 TEMPO 2217/2220 6SM -RA FM222000 08004KT 5SM -RA BKN025 OVC050 FM230100 09004KT 4SM -RA BR BKN007 OVC015
  Airport Weather Conditions for KPNE

 Current Weather at PNE
33° F
Overcast
North winds at 3.5 mph
PNE NOAA Radar

Pressure: 30.35 in
Humidity: 70%
Wind: North at 3.5 MPH (3 KT)
Dew Point: 24.1°F
Visibility: 10.00 mi


Airport Weather Forecast for KPNE

Translated METAR and TAF for KPNE
Translated METAR for KPNE (0912 UTC 22 December 2014)
found at http://aviationweather.gov/adds/metars/
 
METAR text: KPNE 220854Z AUTO 34004KT 10SM OVC022 01/M04 A3034 RMK AO2 SLP274 T00111044 50003 TSNO
Conditions at: KPNE (PHILADELPHIA/NE , PA, US) observed 0854 UTC 22 December 2014
Temperature: 1.1°C (34°F)
Dewpoint: -4.4°C (24°F) [RH = 67%]
Pressure (altimeter): 30.34 inches Hg (1027.5 mb)
[Sea-level pressure: 1027.4 mb]
Winds: from the NNW (340 degrees) at 5 MPH (4 knots; 2.1 m/s)
Visibility: 10 or more miles (16+ km)
Ceiling: 2200 feet AGL
Clouds: overcast cloud deck at 2200 feet AGL
Weather: automated observation with no human augmentation;
there may or may not be significant weather present at this time
Translated TAF for KPNE
Forecast for: KPNE (PHILADELPHIA/NE , PA, US)
TAF Text: KPNE 220532Z 2206/2306 VRB03KT P6SM OVC025
Forecast period: 0600 to 1600 UTC 22 December 2014
Forecast type: FROM: standard forecast or significant change
Winds: variable direction winds at 3 MPH (3 knots; 1.6 m/s)
Visibility: 6 or more miles (10+ km)
Ceiling: 2500 feet AGL
Clouds: overcast cloud deck at 2500 feet AGL
Weather: no significant weather forecast for this period
TAF Text: FM221600 08005KT P6SM SCT025 OVC060
Forecast period: 1600 to 2000 UTC 22 December 2014
Forecast type: FROM: standard forecast or significant change
Winds: from the E (80 degrees) at 6 MPH (5 knots; 2.6 m/s)
Visibility: 6 or more miles (10+ km)
Ceiling: 6000 feet AGL
Clouds: scattered clouds at 2500 feet AGL
overcast cloud deck at 6000 feet AGL
Weather: no significant weather forecast for this period
TAF Text: TEMPO 2217/2220 6SM -RA
Forecast period: 1700 to 2000 UTC 22 December 2014
Forecast type: TEMPORARY: The following changes expected for less than half the time period
Visibility: 6 miles (10 km)
Weather: -RA  (light rain)
TAF Text: FM222000 08004KT 5SM -RA BKN025 OVC050
Forecast period: 2000 UTC 22 December 2014 to 0100 UTC 23 December 2014
Forecast type: FROM: standard forecast or significant change
Winds: from the E (80 degrees) at 5 MPH (4 knots; 2.1 m/s)
Visibility: 5 miles (8 km)
Ceiling: 2500 feet AGL
Clouds: broken clouds at 2500 feet AGL
overcast cloud deck at 5000 feet AGL
Weather: -RA  (light rain)
TAF Text: FM230100 09004KT 4SM -RA BR BKN007 OVC015
Forecast period: 0100 to 0600 UTC 23 December 2014
Forecast type: FROM: standard forecast or significant change
Winds: from the E (90 degrees) at 5 MPH (4 knots; 2.1 m/s)
Visibility: 4 miles (6 km)
Ceiling: 700 feet AGL
Clouds: broken clouds at 700 feet AGL
overcast cloud deck at 1500 feet AGL
Weather: -RA BR  (light rain, mist)

Find All Airport Services Find A Hotel Find A Rental Car Find A Golf Course Find A Restaurant $100 Hamburger



FBO's on the Field
FBO Company Facility Photos Services Transportation Aviation Fuel Prices: Prices include tax
Catering Weather Repair Courtesy Rental Type 100LL JetA JetA+ MOGAS 8087
 
Atlantic Aviation

This FBO has not yet been rated
FS:Independent
Last Updated: Dec-19
Login to update fuel prices
SS:
Contact Atlantic AviationMore FBO Information
 
North Philadelphia Jet Center

Currently rated 5 by 2 people
FS:Avfuel
Last Updated: Nov-26
Login to update fuel prices
SS:
Contact North Philadelphia Jet CenterMore FBO Information
 
Add another FBO Facility Photos Catering Weather Repair Courtesy Rental Type 100LL JetA JetA+ MOGAS 8087
Services Transportation Aviation Fuel Prices: Prices include tax


model-print
model-print
model-print
model-print